메인 페이지
METAR-TAF:

METAR-TAF

공항 :

도쿄 국제공항

도쿄국제공항, 일본

위도: 35-33N, 경도: 139-47E, 고도: 5m

현재 날씨관측

예보는 21분 전, 13:00시(UTC)에 발표되었습니다.
북서15kt
온도 6°C
습도 42%
기압 1014 hPa
시정 10km 이상
1500m 미만 상공 구름 및 적란운 없음

METAR: RJTT 261300Z 32015KT CAVOK 06/M06 Q1014 TEMPO 34020G30KT RMK A2995

시각: 22:21 (13:21 UTC)

예보

예보는 2 시간 16분 전, 11:05시(UTC)에 발표되었습니다.
예보 대상 시간: 26일 12시부터 27일 18시까지 (UTC)
북북서23kt
시정 10km 이상
고도 3000ft 상공 구름 조금
일시적
26일 12시부터 27일 00시까지 (UTC)
북북서30kt, 순간 최대 풍속 40kt
전환 중
27일 00시부터 27일 03시까지 (UTC)
북북서26kt, 순간 최대 풍속 36kt
일시적
27일 00시부터 27일 06시까지 (UTC)
북북서34kt, 순간 최대 풍속 46kt

TAF: RJTT 261105Z 2612/2718 33023KT 9999 FEW030 TEMPO 2612/2700 34030G40KT BECMG 2700/2703 34026G36KT TEMPO 2700/2706 34034G46KT

4,000개 이상의 공항 관측 자료 및 예보 (METAR 및 TAF 보고).

지도상에서 검색 가능한 기상관측소가 노란 점과 빨간 점으로 표시되어 있습니다.

기상관측소 명을 보려면 표시 위로 마우스를 이동하세요.

날씨 관측과 예보를 보려면 클릭하세요.

지도 변경 : 확대하려면 엑스 표시가 있는 녹색 버튼, 축소하려면 빼기 표시가 있는 녹색 버튼, 다음 페이지의 지도를 보려면 녹색 화살표를 클릭하세요.


METAR-TAF: